sensor_id;sensor_type;location;lat;lon;timestamp;temperature;humidity
44705;DHT22;30431;48.520;9.046;2024-01-11T00:01:50;-4.00;99.90
44705;DHT22;30431;48.520;9.046;2024-01-11T00:04:18;-4.10;99.90
44705;DHT22;30431;48.520;9.046;2024-01-11T00:06:45;-4.10;99.90
44705;DHT22;30431;48.520;9.046;2024-01-11T00:09:15;-4.10;99.90
44705;DHT22;30431;48.520;9.046;2024-01-11T00:11:42;-4.10;99.90
44705;DHT22;30431;48.520;9.046;2024-01-11T00:14:11;-4.10;99.90
44705;DHT22;30431;48.520;9.046;2024-01-11T00:16:38;-4.10;99.90
44705;DHT22;30431;48.520;9.046;2024-01-11T00:19:08;-4.20;99.90
44705;DHT22;30431;48.520;9.046;2024-01-11T00:21:38;-4.20;99.90
44705;DHT22;30431;48.520;9.046;2024-01-11T00:24:10;-4.20;99.90
44705;DHT22;30431;48.520;9.046;2024-01-11T00:26:37;-4.30;99.90
44705;DHT22;30431;48.520;9.046;2024-01-11T00:29:11;-4.30;99.90
44705;DHT22;30431;48.520;9.046;2024-01-11T00:31:38;-4.30;99.90
44705;DHT22;30431;48.520;9.046;2024-01-11T00:34:05;-4.30;99.90
44705;DHT22;30431;48.520;9.046;2024-01-11T00:36:32;-4.40;99.90
44705;DHT22;30431;48.520;9.046;2024-01-11T00:39:03;-4.40;99.90
44705;DHT22;30431;48.520;9.046;2024-01-11T00:41:30;-4.40;99.90
44705;DHT22;30431;48.520;9.046;2024-01-11T00:43:57;-4.50;99.90
44705;DHT22;30431;48.520;9.046;2024-01-11T00:46:29;-4.50;99.90
44705;DHT22;30431;48.520;9.046;2024-01-11T00:48:57;-4.50;99.90
44705;DHT22;30431;48.520;9.046;2024-01-11T00:51:25;-4.50;99.90
44705;DHT22;30431;48.520;9.046;2024-01-11T00:53:54;-4.50;99.90
44705;DHT22;30431;48.520;9.046;2024-01-11T00:56:21;-4.60;99.90
44705;DHT22;30431;48.520;9.046;2024-01-11T00:58:53;-4.60;99.90
44705;DHT22;30431;48.520;9.046;2024-01-11T01:01:20;-4.60;99.90
44705;DHT22;30431;48.520;9.046;2024-01-11T01:03:49;-4.60;99.90
44705;DHT22;30431;48.520;9.046;2024-01-11T01:06:16;-4.70;99.90
44705;DHT22;30431;48.520;9.046;2024-01-11T01:08:44;-4.60;99.90
44705;DHT22;30431;48.520;9.046;2024-01-11T01:11:11;-4.60;99.90
44705;DHT22;30431;48.520;9.046;2024-01-11T01:13:38;-4.60;99.90
44705;DHT22;30431;48.520;9.046;2024-01-11T01:16:07;-4.60;99.90
44705;DHT22;30431;48.520;9.046;2024-01-11T01:18:34;-4.60;99.90
44705;DHT22;30431;48.520;9.046;2024-01-11T01:21:01;-4.60;99.90
44705;DHT22;30431;48.520;9.046;2024-01-11T01:23:28;-4.60;99.90
44705;DHT22;30431;48.520;9.046;2024-01-11T01:25:55;-4.60;99.90
44705;DHT22;30431;48.520;9.046;2024-01-11T01:28:24;-4.60;99.90
44705;DHT22;30431;48.520;9.046;2024-01-11T01:30:51;-4.60;99.90
44705;DHT22;30431;48.520;9.046;2024-01-11T01:33:18;-4.60;99.90
44705;DHT22;30431;48.520;9.046;2024-01-11T01:35:50;-4.70;99.90
44705;DHT22;30431;48.520;9.046;2024-01-11T01:38:18;-4.70;99.90
44705;DHT22;30431;48.520;9.046;2024-01-11T01:40:47;-4.70;99.90
44705;DHT22;30431;48.520;9.046;2024-01-11T01:43:16;-4.80;99.90
44705;DHT22;30431;48.520;9.046;2024-01-11T01:45:43;-4.80;99.90
44705;DHT22;30431;48.520;9.046;2024-01-11T01:48:11;-4.80;99.90
44705;DHT22;30431;48.520;9.046;2024-01-11T01:50:38;-4.90;99.90
44705;DHT22;30431;48.520;9.046;2024-01-11T01:53:11;-4.80;99.90
44705;DHT22;30431;48.520;9.046;2024-01-11T01:55:39;-4.80;99.90
44705;DHT22;30431;48.520;9.046;2024-01-11T01:58:08;-4.80;99.90
44705;DHT22;30431;48.520;9.046;2024-01-11T02:00:35;-4.80;99.90
44705;DHT22;30431;48.520;9.046;2024-01-11T02:03:07;-4.80;99.90
44705;DHT22;30431;48.520;9.046;2024-01-11T02:05:35;-4.90;99.90
44705;DHT22;30431;48.520;9.046;2024-01-11T02:08:06;-4.90;99.90
44705;DHT22;30431;48.520;9.046;2024-01-11T02:10:35;-4.90;99.90
44705;DHT22;30431;48.520;9.046;2024-01-11T02:13:02;-4.90;99.90
44705;DHT22;30431;48.520;9.046;2024-01-11T02:15:32;-5.00;99.90
44705;DHT22;30431;48.520;9.046;2024-01-11T02:18:03;-5.00;99.90
44705;DHT22;30431;48.520;9.046;2024-01-11T02:20:33;-5.00;99.90
44705;DHT22;30431;48.520;9.046;2024-01-11T02:23:08;-5.00;99.90
44705;DHT22;30431;48.520;9.046;2024-01-11T02:25:37;-5.10;99.90
44705;DHT22;30431;48.520;9.046;2024-01-11T02:28:06;-5.10;99.90
44705;DHT22;30431;48.520;9.046;2024-01-11T02:30:37;-5.00;99.90
44705;DHT22;30431;48.520;9.046;2024-01-11T02:33:07;-5.00;99.90
44705;DHT22;30431;48.520;9.046;2024-01-11T02:35:35;-5.10;99.90
44705;DHT22;30431;48.520;9.046;2024-01-11T02:38:07;-5.10;99.90
44705;DHT22;30431;48.520;9.046;2024-01-11T02:40:34;-5.20;99.90
44705;DHT22;30431;48.520;9.046;2024-01-11T02:43:11;-5.20;99.90
44705;DHT22;30431;48.520;9.046;2024-01-11T02:45:41;-5.20;99.90
44705;DHT22;30431;48.520;9.046;2024-01-11T02:48:08;-5.20;99.90
44705;DHT22;30431;48.520;9.046;2024-01-11T02:50:40;-5.30;99.90
44705;DHT22;30431;48.520;9.046;2024-01-11T02:53:07;-5.30;99.90
44705;DHT22;30431;48.520;9.046;2024-01-11T02:55:34;-5.30;99.90
44705;DHT22;30431;48.520;9.046;2024-01-11T02:58:03;-5.30;99.90
44705;DHT22;30431;48.520;9.046;2024-01-11T03:00:30;-5.40;99.90
44705;DHT22;30431;48.520;9.046;2024-01-11T03:02:59;-5.40;99.90
44705;DHT22;30431;48.520;9.046;2024-01-11T03:05:26;-5.40;99.90
44705;DHT22;30431;48.520;9.046;2024-01-11T03:07:54;-5.30;99.90
44705;DHT22;30431;48.520;9.046;2024-01-11T03:10:23;-5.40;99.90
44705;DHT22;30431;48.520;9.046;2024-01-11T03:12:53;-5.40;99.90
44705;DHT22;30431;48.520;9.046;2024-01-11T03:15:20;-5.30;99.90
44705;DHT22;30431;48.520;9.046;2024-01-11T03:17:47;-5.30;99.90
44705;DHT22;30431;48.520;9.046;2024-01-11T03:20:14;-5.30;99.90
44705;DHT22;30431;48.520;9.046;2024-01-11T03:22:46;-5.30;99.90
44705;DHT22;30431;48.520;9.046;2024-01-11T03:25:13;-5.20;99.90
44705;DHT22;30431;48.520;9.046;2024-01-11T03:27:40;-5.20;99.90
44705;DHT22;30431;48.520;9.046;2024-01-11T03:30:09;-5.20;99.90
44705;DHT22;30431;48.520;9.046;2024-01-11T03:32:37;-5.30;99.90
44705;DHT22;30431;48.520;9.046;2024-01-11T03:35:08;-5.30;99.90
44705;DHT22;30431;48.520;9.046;2024-01-11T03:37:35;-5.30;99.90
44705;DHT22;30431;48.520;9.046;2024-01-11T03:40:03;-5.30;99.90
44705;DHT22;30431;48.520;9.046;2024-01-11T03:42:31;-5.30;99.90
44705;DHT22;30431;48.520;9.046;2024-01-11T03:44:58;-5.30;99.90
44705;DHT22;30431;48.520;9.046;2024-01-11T03:47:27;-5.40;99.90
44705;DHT22;30431;48.520;9.046;2024-01-11T03:49:54;-5.30;99.90
44705;DHT22;30431;48.520;9.046;2024-01-11T03:52:23;-5.30;99.90
44705;DHT22;30431;48.520;9.046;2024-01-11T03:54:50;-5.30;99.90
44705;DHT22;30431;48.520;9.046;2024-01-11T03:57:20;-5.20;99.90
44705;DHT22;30431;48.520;9.046;2024-01-11T03:59:51;-5.10;99.90
44705;DHT22;30431;48.520;9.046;2024-01-11T04:02:18;-5.10;99.90
44705;DHT22;30431;48.520;9.046;2024-01-11T04:04:48;-5.10;99.90
44705;DHT22;30431;48.520;9.046;2024-01-11T04:07:15;-5.00;99.90
44705;DHT22;30431;48.520;9.046;2024-01-11T04:09:44;-5.10;99.90
44705;DHT22;30431;48.520;9.046;2024-01-11T04:12:11;-5.20;99.90
44705;DHT22;30431;48.520;9.046;2024-01-11T04:14:39;-5.20;99.90
44705;DHT22;30431;48.520;9.046;2024-01-11T04:17:09;-5.20;99.90
44705;DHT22;30431;48.520;9.046;2024-01-11T04:19:36;-5.30;99.90
44705;DHT22;30431;48.520;9.046;2024-01-11T04:22:03;-5.30;99.90
44705;DHT22;30431;48.520;9.046;2024-01-11T04:24:30;-5.30;99.90
44705;DHT22;30431;48.520;9.046;2024-01-11T04:26:59;-5.30;99.90
44705;DHT22;30431;48.520;9.046;2024-01-11T04:29:28;-5.30;99.90
44705;DHT22;30431;48.520;9.046;2024-01-11T04:31:57;-5.30;99.90
44705;DHT22;30431;48.520;9.046;2024-01-11T04:34:25;-5.30;99.90
44705;DHT22;30431;48.520;9.046;2024-01-11T04:36:52;-5.30;99.90
44705;DHT22;30431;48.520;9.046;2024-01-11T04:39:21;-5.30;99.90
44705;DHT22;30431;48.520;9.046;2024-01-11T04:41:48;-5.30;99.90
44705;DHT22;30431;48.520;9.046;2024-01-11T04:44:15;-5.30;99.90
44705;DHT22;30431;48.520;9.046;2024-01-11T04:46:44;-5.30;99.90
44705;DHT22;30431;48.520;9.046;2024-01-11T04:49:16;-5.30;99.90
44705;DHT22;30431;48.520;9.046;2024-01-11T04:51:43;-5.40;99.90
44705;DHT22;30431;48.520;9.046;2024-01-11T04:54:10;-5.40;99.90
44705;DHT22;30431;48.520;9.046;2024-01-11T04:56:37;-5.40;99.90
44705;DHT22;30431;48.520;9.046;2024-01-11T04:59:04;-5.30;99.90
44705;DHT22;30431;48.520;9.046;2024-01-11T05:01:31;-5.30;99.90
44705;DHT22;30431;48.520;9.046;2024-01-11T05:03:58;-5.30;99.90
44705;DHT22;30431;48.520;9.046;2024-01-11T05:06:27;-5.30;99.90
44705;DHT22;30431;48.520;9.046;2024-01-11T05:08:54;-5.30;99.90
44705;DHT22;30431;48.520;9.046;2024-01-11T05:11:23;-5.40;99.90
44705;DHT22;30431;48.520;9.046;2024-01-11T05:13:53;-5.40;99.90
44705;DHT22;30431;48.520;9.046;2024-01-11T05:16:29;-5.40;99.90
44705;DHT22;30431;48.520;9.046;2024-01-11T05:18:59;-5.40;99.90
44705;DHT22;30431;48.520;9.046;2024-01-11T05:21:26;-5.40;99.90
44705;DHT22;30431;48.520;9.046;2024-01-11T05:23:53;-5.50;99.90
44705;DHT22;30431;48.520;9.046;2024-01-11T05:26:20;-5.50;99.90
44705;DHT22;30431;48.520;9.046;2024-01-11T05:28:48;-5.50;99.90
44705;DHT22;30431;48.520;9.046;2024-01-11T05:31:17;-5.50;99.90
44705;DHT22;30431;48.520;9.046;2024-01-11T05:33:45;-5.60;99.90
44705;DHT22;30431;48.520;9.046;2024-01-11T05:36:14;-5.60;99.90
44705;DHT22;30431;48.520;9.046;2024-01-11T05:38:45;-5.60;99.90
44705;DHT22;30431;48.520;9.046;2024-01-11T05:41:12;-5.70;99.90
44705;DHT22;30431;48.520;9.046;2024-01-11T05:43:39;-5.70;99.90
44705;DHT22;30431;48.520;9.046;2024-01-11T05:46:09;-5.70;99.90
44705;DHT22;30431;48.520;9.046;2024-01-11T05:48:37;-5.70;99.90
44705;DHT22;30431;48.520;9.046;2024-01-11T05:51:07;-5.70;99.90
44705;DHT22;30431;48.520;9.046;2024-01-11T05:53:37;-5.70;99.90
44705;DHT22;30431;48.520;9.046;2024-01-11T05:56:08;-5.70;99.90
44705;DHT22;30431;48.520;9.046;2024-01-11T05:58:37;-5.70;99.90
44705;DHT22;30431;48.520;9.046;2024-01-11T06:01:05;-5.70;99.90
44705;DHT22;30431;48.520;9.046;2024-01-11T06:03:32;-5.70;99.90
44705;DHT22;30431;48.520;9.046;2024-01-11T06:06:02;-5.70;99.90
44705;DHT22;30431;48.520;9.046;2024-01-11T06:08:29;-5.70;99.90
44705;DHT22;30431;48.520;9.046;2024-01-11T06:10:58;-5.70;99.90
44705;DHT22;30431;48.520;9.046;2024-01-11T06:13:25;-5.70;99.90
44705;DHT22;30431;48.520;9.046;2024-01-11T06:15:55;-5.70;99.90
44705;DHT22;30431;48.520;9.046;2024-01-11T06:18:24;-5.70;99.90
44705;DHT22;30431;48.520;9.046;2024-01-11T06:20:51;-5.80;99.90
44705;DHT22;30431;48.520;9.046;2024-01-11T06:23:24;-5.80;99.90
44705;DHT22;30431;48.520;9.046;2024-01-11T06:25:52;-5.80;99.90
44705;DHT22;30431;48.520;9.046;2024-01-11T06:28:23;-5.80;99.90
44705;DHT22;30431;48.520;9.046;2024-01-11T06:30:50;-5.80;99.90
44705;DHT22;30431;48.520;9.046;2024-01-11T06:33:19;-5.80;99.90
44705;DHT22;30431;48.520;9.046;2024-01-11T06:35:47;-5.80;99.90
44705;DHT22;30431;48.520;9.046;2024-01-11T06:38:14;-5.80;99.90
44705;DHT22;30431;48.520;9.046;2024-01-11T06:40:46;-5.80;99.90
44705;DHT22;30431;48.520;9.046;2024-01-11T06:43:13;-5.80;99.90
44705;DHT22;30431;48.520;9.046;2024-01-11T06:45:42;-5.80;99.90
44705;DHT22;30431;48.520;9.046;2024-01-11T06:48:11;-5.80;99.90
44705;DHT22;30431;48.520;9.046;2024-01-11T06:50:39;-5.80;99.90
44705;DHT22;30431;48.520;9.046;2024-01-11T06:53:10;-5.70;99.90
44705;DHT22;30431;48.520;9.046;2024-01-11T06:55:37;-5.80;99.90
44705;DHT22;30431;48.520;9.046;2024-01-11T06:58:04;-5.70;99.90
44705;DHT22;30431;48.520;9.046;2024-01-11T07:00:32;-5.80;99.90
44705;DHT22;30431;48.520;9.046;2024-01-11T07:03:01;-5.70;99.90
44705;DHT22;30431;48.520;9.046;2024-01-11T07:05:30;-5.70;99.90
44705;DHT22;30431;48.520;9.046;2024-01-11T07:07:57;-5.80;99.90
44705;DHT22;30431;48.520;9.046;2024-01-11T07:10:29;-5.80;99.90
44705;DHT22;30431;48.520;9.046;2024-01-11T07:12:56;-5.80;99.90
44705;DHT22;30431;48.520;9.046;2024-01-11T07:15:23;-5.80;99.90
44705;DHT22;30431;48.520;9.046;2024-01-11T07:17:54;-5.80;99.90
44705;DHT22;30431;48.520;9.046;2024-01-11T07:20:21;-5.80;99.90
44705;DHT22;30431;48.520;9.046;2024-01-11T07:22:51;-5.80;99.90
44705;DHT22;30431;48.520;9.046;2024-01-11T07:25:17;-5.70;99.90
44705;DHT22;30431;48.520;9.046;2024-01-11T07:27:44;-5.70;99.90
44705;DHT22;30431;48.520;9.046;2024-01-11T07:30:12;-5.70;99.90
44705;DHT22;30431;48.520;9.046;2024-01-11T07:32:39;-5.70;99.90
44705;DHT22;30431;48.520;9.046;2024-01-11T07:35:07;-5.70;99.90
44705;DHT22;30431;48.520;9.046;2024-01-11T07:37:40;-5.60;99.90
44705;DHT22;30431;48.520;9.046;2024-01-11T07:40:07;-5.60;99.90
44705;DHT22;30431;48.520;9.046;2024-01-11T07:42:38;-5.70;99.90
44705;DHT22;30431;48.520;9.046;2024-01-11T07:45:12;-5.70;99.90
44705;DHT22;30431;48.520;9.046;2024-01-11T07:47:40;-5.60;99.90
44705;DHT22;30431;48.520;9.046;2024-01-11T07:50:08;-5.60;99.90
44705;DHT22;30431;48.520;9.046;2024-01-11T07:52:41;-5.50;99.90
44705;DHT22;30431;48.520;9.046;2024-01-11T07:55:10;-5.50;99.90
44705;DHT22;30431;48.520;9.046;2024-01-11T07:57:39;-5.40;99.90
44705;DHT22;30431;48.520;9.046;2024-01-11T08:00:09;-5.30;99.90
44705;DHT22;30431;48.520;9.046;2024-01-11T08:02:39;-5.30;99.90
44705;DHT22;30431;48.520;9.046;2024-01-11T08:05:07;-5.30;99.90
44705;DHT22;30431;48.520;9.046;2024-01-11T08:07:39;-5.30;99.90
44705;DHT22;30431;48.520;9.046;2024-01-11T08:10:11;-5.20;99.90
44705;DHT22;30431;48.520;9.046;2024-01-11T08:12:38;-5.10;99.90
44705;DHT22;30431;48.520;9.046;2024-01-11T08:15:08;-5.10;99.90
44705;DHT22;30431;48.520;9.046;2024-01-11T08:17:46;-5.10;99.90
44705;DHT22;30431;48.520;9.046;2024-01-11T08:20:15;-5.10;99.90
44705;DHT22;30431;48.520;9.046;2024-01-11T08:22:45;-5.10;99.90
44705;DHT22;30431;48.520;9.046;2024-01-11T08:25:15;-5.00;99.90
44705;DHT22;30431;48.520;9.046;2024-01-11T08:27:42;-5.00;99.90
44705;DHT22;30431;48.520;9.046;2024-01-11T08:30:12;-4.90;99.90
44705;DHT22;30431;48.520;9.046;2024-01-11T08:32:40;-4.80;99.90
44705;DHT22;30431;48.520;9.046;2024-01-11T08:35:10;-4.70;99.90
44705;DHT22;30431;48.520;9.046;2024-01-11T08:37:37;-4.50;99.90
44705;DHT22;30431;48.520;9.046;2024-01-11T08:40:08;-4.40;99.90
44705;DHT22;30431;48.520;9.046;2024-01-11T08:42:36;-4.30;99.90
44705;DHT22;30431;48.520;9.046;2024-01-11T08:45:04;-4.20;99.90
44705;DHT22;30431;48.520;9.046;2024-01-11T08:47:36;-4.20;99.90
44705;DHT22;30431;48.520;9.046;2024-01-11T08:50:05;-4.10;99.90
44705;DHT22;30431;48.520;9.046;2024-01-11T08:52:33;-4.10;99.90
44705;DHT22;30431;48.520;9.046;2024-01-11T08:55:00;-4.00;99.90
44705;DHT22;30431;48.520;9.046;2024-01-11T08:57:27;-4.00;99.90
44705;DHT22;30431;48.520;9.046;2024-01-11T08:59:57;-3.90;99.90
44705;DHT22;30431;48.520;9.046;2024-01-11T09:02:26;-3.80;99.90
44705;DHT22;30431;48.520;9.046;2024-01-11T09:04:53;-3.80;99.90
44705;DHT22;30431;48.520;9.046;2024-01-11T09:07:26;-3.70;99.90
44705;DHT22;30431;48.520;9.046;2024-01-11T09:09:57;-3.70;99.90
44705;DHT22;30431;48.520;9.046;2024-01-11T09:12:24;-3.60;99.90
44705;DHT22;30431;48.520;9.046;2024-01-11T09:14:51;-3.60;99.90
44705;DHT22;30431;48.520;9.046;2024-01-11T09:17:21;-3.60;99.90
44705;DHT22;30431;48.520;9.046;2024-01-11T09:19:51;-3.60;99.60
44705;DHT22;30431;48.520;9.046;2024-01-11T09:22:18;-3.60;99.90
44705;DHT22;30431;48.520;9.046;2024-01-11T09:24:45;-3.50;99.90
44705;DHT22;30431;48.520;9.046;2024-01-11T09:27:15;-3.50;99.90
44705;DHT22;30431;48.520;9.046;2024-01-11T09:29:47;-3.40;99.90
44705;DHT22;30431;48.520;9.046;2024-01-11T09:32:18;-3.30;99.90
44705;DHT22;30431;48.520;9.046;2024-01-11T09:34:47;-3.20;99.90
44705;DHT22;30431;48.520;9.046;2024-01-11T09:37:14;-3.00;99.90
44705;DHT22;30431;48.520;9.046;2024-01-11T09:39:41;-2.90;99.90
44705;DHT22;30431;48.520;9.046;2024-01-11T09:42:09;-2.80;99.90
44705;DHT22;30431;48.520;9.046;2024-01-11T09:44:41;-2.70;99.90
44705;DHT22;30431;48.520;9.046;2024-01-11T09:47:10;-2.70;99.90
44705;DHT22;30431;48.520;9.046;2024-01-11T09:49:44;-2.70;99.90
44705;DHT22;30431;48.520;9.046;2024-01-11T09:52:12;-2.60;99.90
44705;DHT22;30431;48.520;9.046;2024-01-11T09:54:42;-2.60;99.90
44705;DHT22;30431;48.520;9.046;2024-01-11T09:57:09;-2.50;99.90
44705;DHT22;30431;48.520;9.046;2024-01-11T09:59:45;-2.40;99.90
44705;DHT22;30431;48.520;9.046;2024-01-11T10:02:12;-2.20;99.90
44705;DHT22;30431;48.520;9.046;2024-01-11T10:04:42;-2.10;99.90
44705;DHT22;30431;48.520;9.046;2024-01-11T10:07:09;-2.10;99.40
44705;DHT22;30431;48.520;9.046;2024-01-11T10:09:36;-2.10;99.40
44705;DHT22;30431;48.520;9.046;2024-01-11T10:12:06;-2.20;99.40
44705;DHT22;30431;48.520;9.046;2024-01-11T10:14:34;-2.20;99.50
44705;DHT22;30431;48.520;9.046;2024-01-11T10:17:01;-2.20;99.90
44705;DHT22;30431;48.520;9.046;2024-01-11T10:19:31;-2.20;99.80
44705;DHT22;30431;48.520;9.046;2024-01-11T10:21:59;-2.20;99.40
44705;DHT22;30431;48.520;9.046;2024-01-11T10:24:26;-2.20;99.40
44705;DHT22;30431;48.520;9.046;2024-01-11T10:26:56;-2.20;99.80
44705;DHT22;30431;48.520;9.046;2024-01-11T10:29:35;-2.20;99.90
44705;DHT22;30431;48.520;9.046;2024-01-11T10:32:06;-2.10;99.90
44705;DHT22;30431;48.520;9.046;2024-01-11T10:34:33;-2.00;99.90
44705;DHT22;30431;48.520;9.046;2024-01-11T10:37:00;-1.90;99.80
44705;DHT22;30431;48.520;9.046;2024-01-11T10:39:27;-1.90;99.80
44705;DHT22;30431;48.520;9.046;2024-01-11T10:42:05;-1.80;99.70
44705;DHT22;30431;48.520;9.046;2024-01-11T10:44:34;-1.80;99.30
44705;DHT22;30431;48.520;9.046;2024-01-11T10:47:03;-1.70;98.90
44705;DHT22;30431;48.520;9.046;2024-01-11T10:49:38;-1.70;98.70
44705;DHT22;30431;48.520;9.046;2024-01-11T10:52:08;-1.60;98.80
44705;DHT22;30431;48.520;9.046;2024-01-11T10:54:35;-1.60;99.00
44705;DHT22;30431;48.520;9.046;2024-01-11T10:57:03;-1.50;98.60
44705;DHT22;30431;48.520;9.046;2024-01-11T10:59:35;-1.50;98.40
44705;DHT22;30431;48.520;9.046;2024-01-11T11:02:07;-1.50;98.70
44705;DHT22;30431;48.520;9.046;2024-01-11T11:04:40;-1.30;97.90
44705;DHT22;30431;48.520;9.046;2024-01-11T11:07:09;-1.30;98.30
44705;DHT22;30431;48.520;9.046;2024-01-11T11:09:39;-1.20;98.40
44705;DHT22;30431;48.520;9.046;2024-01-11T11:12:12;-1.10;98.00
44705;DHT22;30431;48.520;9.046;2024-01-11T11:14:43;-1.10;97.90
44705;DHT22;30431;48.520;9.046;2024-01-11T11:17:13;-1.00;97.80
44705;DHT22;30431;48.520;9.046;2024-01-11T11:19:42;-1.00;97.60
44705;DHT22;30431;48.520;9.046;2024-01-11T11:22:09;-1.00;97.20
44705;DHT22;30431;48.520;9.046;2024-01-11T11:24:42;-1.00;97.20
44705;DHT22;30431;48.520;9.046;2024-01-11T11:27:13;-0.90;97.50
44705;DHT22;30431;48.520;9.046;2024-01-11T11:29:47;-0.90;97.50
44705;DHT22;30431;48.520;9.046;2024-01-11T11:32:19;-0.90;97.10
44705;DHT22;30431;48.520;9.046;2024-01-11T11:35:01;-0.90;97.30
44705;DHT22;30431;48.520;9.046;2024-01-11T11:37:29;-0.80;97.30
44705;DHT22;30431;48.520;9.046;2024-01-11T11:39:57;-0.80;97.20
44705;DHT22;30431;48.520;9.046;2024-01-11T11:42:27;-0.70;97.30
44705;DHT22;30431;48.520;9.046;2024-01-11T11:44:56;-0.60;97.00
44705;DHT22;30431;48.520;9.046;2024-01-11T11:47:33;-0.60;97.00
44705;DHT22;30431;48.520;9.046;2024-01-11T11:50:06;-0.60;96.80
44705;DHT22;30431;48.520;9.046;2024-01-11T11:52:36;-0.50;97.00
44705;DHT22;30431;48.520;9.046;2024-01-11T11:55:07;-0.50;97.30
44705;DHT22;30431;48.520;9.046;2024-01-11T11:57:36;-0.40;97.20
44705;DHT22;30431;48.520;9.046;2024-01-11T12:00:05;-0.40;97.20
44705;DHT22;30431;48.520;9.046;2024-01-11T12:02:39;-0.30;97.00
44705;DHT22;30431;48.520;9.046;2024-01-11T12:05:06;-0.30;97.20
44705;DHT22;30431;48.520;9.046;2024-01-11T12:07:36;-0.20;97.30
44705;DHT22;30431;48.520;9.046;2024-01-11T12:10:06;-0.20;97.30
44705;DHT22;30431;48.520;9.046;2024-01-11T12:12:37;-0.20;97.40
44705;DHT22;30431;48.520;9.046;2024-01-11T12:15:05;-0.20;97.10
44705;DHT22;30431;48.520;9.046;2024-01-11T12:17:32;-0.10;97.30
44705;DHT22;30431;48.520;9.046;2024-01-11T12:19:59;0.00;98.60
44705;DHT22;30431;48.520;9.046;2024-01-11T12:22:33;0.10;97.70
44705;DHT22;30431;48.520;9.046;2024-01-11T12:25:06;0.30;97.90
44705;DHT22;30431;48.520;9.046;2024-01-11T12:27:34;0.30;96.70
44705;DHT22;30431;48.520;9.046;2024-01-11T12:30:03;0.30;96.60
44705;DHT22;30431;48.520;9.046;2024-01-11T12:32:33;0.30;96.40
44705;DHT22;30431;48.520;9.046;2024-01-11T12:35:05;0.20;96.60
44705;DHT22;30431;48.520;9.046;2024-01-11T12:37:32;0.20;96.80
44705;DHT22;30431;48.520;9.046;2024-01-11T12:39:59;0.20;96.50
44705;DHT22;30431;48.520;9.046;2024-01-11T12:42:29;0.20;97.10
44705;DHT22;30431;48.520;9.046;2024-01-11T12:44:56;0.20;96.80
44705;DHT22;30431;48.520;9.046;2024-01-11T12:47:26;0.10;96.60
44705;DHT22;30431;48.520;9.046;2024-01-11T12:49:56;0.00;96.80
44705;DHT22;30431;48.520;9.046;2024-01-11T12:52:26;0.00;97.10
44705;DHT22;30431;48.520;9.046;2024-01-11T12:54:56;0.00;97.10
44705;DHT22;30431;48.520;9.046;2024-01-11T12:57:24;0.10;97.00
44705;DHT22;30431;48.520;9.046;2024-01-11T12:59:55;0.20;96.90
44705;DHT22;30431;48.520;9.046;2024-01-11T13:02:35;0.30;96.60
44705;DHT22;30431;48.520;9.046;2024-01-11T13:05:03;0.20;96.70
44705;DHT22;30431;48.520;9.046;2024-01-11T13:07:33;0.20;96.80
44705;DHT22;30431;48.520;9.046;2024-01-11T13:10:00;0.20;96.80
44705;DHT22;30431;48.520;9.046;2024-01-11T13:12:30;0.20;96.80
44705;DHT22;30431;48.520;9.046;2024-01-11T13:14:57;0.20;96.40
44705;DHT22;30431;48.520;9.046;2024-01-11T13:17:24;0.20;96.60
44705;DHT22;30431;48.520;9.046;2024-01-11T13:19:54;0.20;96.90
44705;DHT22;30431;48.520;9.046;2024-01-11T13:22:21;0.20;97.00
44705;DHT22;30431;48.520;9.046;2024-01-11T13:24:50;0.30;97.00
44705;DHT22;30431;48.520;9.046;2024-01-11T13:27:20;0.30;97.10
44705;DHT22;30431;48.520;9.046;2024-01-11T13:29:50;0.40;97.00
44705;DHT22;30431;48.520;9.046;2024-01-11T13:32:20;0.40;96.80
44705;DHT22;30431;48.520;9.046;2024-01-11T13:34:51;0.40;96.90
44705;DHT22;30431;48.520;9.046;2024-01-11T13:37:20;0.40;97.00
44705;DHT22;30431;48.520;9.046;2024-01-11T13:39:49;0.40;96.50
44705;DHT22;30431;48.520;9.046;2024-01-11T13:42:17;0.30;96.60
44705;DHT22;30431;48.520;9.046;2024-01-11T13:44:47;0.40;96.90
44705;DHT22;30431;48.520;9.046;2024-01-11T13:47:19;0.40;96.60
44705;DHT22;30431;48.520;9.046;2024-01-11T13:49:50;0.40;96.60
44705;DHT22;30431;48.520;9.046;2024-01-11T13:52:17;0.40;96.50
44705;DHT22;30431;48.520;9.046;2024-01-11T13:54:44;0.40;96.40
44705;DHT22;30431;48.520;9.046;2024-01-11T13:57:13;0.40;96.70
44705;DHT22;30431;48.520;9.046;2024-01-11T13:59:40;0.40;96.70
44705;DHT22;30431;48.520;9.046;2024-01-11T14:02:07;0.50;96.40
44705;DHT22;30431;48.520;9.046;2024-01-11T14:04:34;0.40;96.50
44705;DHT22;30431;48.520;9.046;2024-01-11T14:07:02;0.50;96.50
44705;DHT22;30431;48.520;9.046;2024-01-11T14:09:30;0.50;96.70
44705;DHT22;30431;48.520;9.046;2024-01-11T14:11:59;0.50;96.70
44705;DHT22;30431;48.520;9.046;2024-01-11T14:14:26;0.50;96.80
44705;DHT22;30431;48.520;9.046;2024-01-11T14:16:53;0.50;96.80
44705;DHT22;30431;48.520;9.046;2024-01-11T14:19:20;0.50;96.50
44705;DHT22;30431;48.520;9.046;2024-01-11T14:21:50;0.50;96.90
44705;DHT22;30431;48.520;9.046;2024-01-11T14:24:18;0.50;97.10
44705;DHT22;30431;48.520;9.046;2024-01-11T14:26:55;0.50;97.10
44705;DHT22;30431;48.520;9.046;2024-01-11T14:29:27;0.50;97.00
44705;DHT22;30431;48.520;9.046;2024-01-11T14:31:56;0.50;96.80
44705;DHT22;30431;48.520;9.046;2024-01-11T14:34:23;0.50;96.70
44705;DHT22;30431;48.520;9.046;2024-01-11T14:36:54;0.50;96.80
44705;DHT22;30431;48.520;9.046;2024-01-11T14:39:21;0.50;96.70
44705;DHT22;30431;48.520;9.046;2024-01-11T14:41:52;0.40;96.80
44705;DHT22;30431;48.520;9.046;2024-01-11T14:44:20;0.40;97.00
44705;DHT22;30431;48.520;9.046;2024-01-11T14:46:49;0.40;96.90
44705;DHT22;30431;48.520;9.046;2024-01-11T14:49:16;0.40;96.60
44705;DHT22;30431;48.520;9.046;2024-01-11T14:51:43;0.40;96.70
44705;DHT22;30431;48.520;9.046;2024-01-11T14:54:10;0.30;96.70
44705;DHT22;30431;48.520;9.046;2024-01-11T14:56:40;0.30;97.40
44705;DHT22;30431;48.520;9.046;2024-01-11T14:59:07;0.20;97.20
44705;DHT22;30431;48.520;9.046;2024-01-11T15:01:36;0.30;96.60
44705;DHT22;30431;48.520;9.046;2024-01-11T15:04:06;0.30;96.40
44705;DHT22;30431;48.520;9.046;2024-01-11T15:06:33;0.30;96.50
44705;DHT22;30431;48.520;9.046;2024-01-11T15:09:01;0.30;96.20
44705;DHT22;30431;48.520;9.046;2024-01-11T15:11:31;0.30;96.30
44705;DHT22;30431;48.520;9.046;2024-01-11T15:14:02;0.10;96.70
44705;DHT22;30431;48.520;9.046;2024-01-11T15:16:32;0.00;97.00
44705;DHT22;30431;48.520;9.046;2024-01-11T15:18:59;-0.10;97.40
44705;DHT22;30431;48.520;9.046;2024-01-11T15:21:26;-0.10;97.30
44705;DHT22;30431;48.520;9.046;2024-01-11T15:23:54;0.00;97.00
44705;DHT22;30431;48.520;9.046;2024-01-11T15:26:22;-0.10;96.90
44705;DHT22;30431;48.520;9.046;2024-01-11T15:28:51;-0.10;97.20
44705;DHT22;30431;48.520;9.046;2024-01-11T15:31:19;-0.20;97.70
44705;DHT22;30431;48.520;9.046;2024-01-11T15:33:46;-0.30;97.60
44705;DHT22;30431;48.520;9.046;2024-01-11T15:36:14;-0.30;97.70
44705;DHT22;30431;48.520;9.046;2024-01-11T15:38:44;-0.30;97.80
44705;DHT22;30431;48.520;9.046;2024-01-11T15:41:45;-0.40;97.90
44705;DHT22;30431;48.520;9.046;2024-01-11T15:44:14;-0.40;97.70
44705;DHT22;30431;48.520;9.046;2024-01-11T15:46:44;-0.40;97.70